createdAt,value
2018-06-28T00:01:50.481Z,13.70
2018-06-28T00:04:20.670Z,13.60
2018-06-28T00:06:51.484Z,13.50
2018-06-28T00:09:23.148Z,13.40
2018-06-28T00:11:54.647Z,13.40
2018-06-28T00:14:24.854Z,13.40
2018-06-28T00:16:55.220Z,13.40
2018-06-28T00:19:25.677Z,13.30
2018-06-28T00:21:55.913Z,13.30
2018-06-28T00:24:27.137Z,13.30
2018-06-28T00:26:58.154Z,13.30
2018-06-28T00:29:28.338Z,13.30
2018-06-28T00:32:01.092Z,13.30
2018-06-28T00:34:38.666Z,13.20
2018-06-28T00:37:09.226Z,13.20
2018-06-28T00:39:39.842Z,13.20
2018-06-28T00:42:10.101Z,13.10
2018-06-28T00:44:40.302Z,13.10
2018-06-28T00:47:12.758Z,13.10
2018-06-28T00:49:43.200Z,13.00
2018-06-28T00:52:13.460Z,13.00
2018-06-28T00:54:43.743Z,12.90
2018-06-28T00:57:13.975Z,12.90
2018-06-28T00:59:44.180Z,12.90
2018-06-28T01:02:14.455Z,12.80
2018-06-28T01:04:44.695Z,12.80
2018-06-28T01:07:17.255Z,12.80
2018-06-28T01:12:10.475Z,12.70
2018-06-28T01:14:40.726Z,12.60
2018-06-28T01:17:11.056Z,12.60
2018-06-28T01:19:41.852Z,12.50
2018-06-28T01:22:12.126Z,12.60
2018-06-28T01:24:50.757Z,12.50
2018-06-28T01:27:22.238Z,12.50
2018-06-28T01:29:53.043Z,12.50
2018-06-28T01:32:23.431Z,12.40
2018-06-28T01:34:54.990Z,12.50
2018-06-28T01:37:25.215Z,12.50
2018-06-28T01:39:55.734Z,12.50
2018-06-28T01:42:53.730Z,12.50
2018-06-28T01:45:32.369Z,12.40
2018-06-28T01:48:10.904Z,12.40
2018-06-28T01:50:42.571Z,12.30
2018-06-28T01:53:16.046Z,12.20
2018-06-28T01:55:46.743Z,12.10
2018-06-28T01:58:18.179Z,12.10
2018-06-28T02:00:48.480Z,12.10
2018-06-28T02:03:19.043Z,12.10
2018-06-28T02:05:50.705Z,12.20
2018-06-28T02:08:21.419Z,12.20
2018-06-28T02:10:51.669Z,12.20
2018-06-28T02:13:21.968Z,12.10
2018-06-28T02:15:52.178Z,12.00
2018-06-28T02:18:22.585Z,11.90
2018-06-28T02:20:52.840Z,11.80
2018-06-28T02:23:23.130Z,11.80
2018-06-28T02:25:56.224Z,11.70
2018-06-28T02:28:26.786Z,11.80
2018-06-28T02:30:56.987Z,11.90
2018-06-28T02:33:27.462Z,11.90
2018-06-28T02:36:02.223Z,11.90
2018-06-28T02:38:39.567Z,11.80
2018-06-28T02:41:15.404Z,11.70
2018-06-28T02:43:45.759Z,11.60
2018-06-28T02:46:16.021Z,11.60
2018-06-28T02:48:52.220Z,11.60
2018-06-28T02:51:23.033Z,11.50
2018-06-28T02:53:53.307Z,11.40
2018-06-28T02:56:25.248Z,11.30
2018-06-28T02:58:56.048Z,11.30
2018-06-28T03:01:29.291Z,11.30
2018-06-28T03:03:59.577Z,11.30
2018-06-28T03:06:29.872Z,11.30
2018-06-28T03:09:00.272Z,11.40
2018-06-28T03:11:30.500Z,11.30
2018-06-28T03:14:00.736Z,11.30
2018-06-28T03:16:30.961Z,11.10
2018-06-28T03:19:01.219Z,11.10
2018-06-28T03:21:31.651Z,11.10
2018-06-28T03:24:07.242Z,11.10
2018-06-28T03:26:49.135Z,11.20
2018-06-28T03:29:19.455Z,11.30
2018-06-28T03:31:49.768Z,11.40
2018-06-28T03:34:20.041Z,11.40
2018-06-28T03:36:50.266Z,11.30
2018-06-28T03:39:26.718Z,11.40
2018-06-28T03:41:56.931Z,11.40
2018-06-28T03:44:27.882Z,11.50
2018-06-28T03:46:58.139Z,11.50
2018-06-28T03:49:28.390Z,11.50
2018-06-28T03:51:59.631Z,11.60
2018-06-28T03:54:29.979Z,11.60
2018-06-28T03:57:00.356Z,11.50
2018-06-28T03:59:39.127Z,11.40
2018-06-28T04:02:14.132Z,11.50
2018-06-28T04:04:45.271Z,11.50
2018-06-28T04:07:17.143Z,11.60
2018-06-28T04:09:47.697Z,11.50
2018-06-28T04:12:17.928Z,11.60
2018-06-28T04:14:48.178Z,11.60
2018-06-28T04:17:18.406Z,11.50
2018-06-28T04:19:48.655Z,11.50
2018-06-28T04:22:25.051Z,11.60
2018-06-28T04:24:55.322Z,11.60
2018-06-28T04:27:25.729Z,11.70
2018-06-28T04:29:55.971Z,11.80
2018-06-28T04:32:26.322Z,12.00
2018-06-28T04:34:56.835Z,12.00
2018-06-28T04:37:27.383Z,12.20
2018-06-28T04:39:57.624Z,12.30
2018-06-28T04:44:57.884Z,12.60
2018-06-28T04:47:28.169Z,12.70
2018-06-28T04:49:58.660Z,12.80
2018-06-28T04:52:31.856Z,12.90
2018-06-28T04:55:03.231Z,13.00
2018-06-28T04:57:33.687Z,13.10
2018-06-28T05:00:04.003Z,13.30
2018-06-28T05:02:34.337Z,13.50
2018-06-28T05:05:04.603Z,13.60
2018-06-28T05:07:34.835Z,13.80
2018-06-28T05:10:05.192Z,14.00
2018-06-28T05:12:35.722Z,14.10
2018-06-28T05:15:06.020Z,14.10
2018-06-28T05:17:36.962Z,14.20
2018-06-28T05:20:11.081Z,14.40
2018-06-28T05:22:47.762Z,14.50
2018-06-28T05:25:19.709Z,14.80
2018-06-28T05:27:51.347Z,15.00
2018-06-28T05:30:21.701Z,15.20
2018-06-28T05:32:52.048Z,15.50
2018-06-28T05:35:22.335Z,15.80
2018-06-28T05:37:52.740Z,16.10
2018-06-28T05:40:23.180Z,16.40
2018-06-28T05:42:53.411Z,16.60
2018-06-28T05:45:24.845Z,16.80
2018-06-28T05:47:55.102Z,17.00
2018-06-28T05:50:25.828Z,17.30
2018-06-28T05:52:56.085Z,17.40
2018-06-28T05:55:26.392Z,17.60
2018-06-28T05:57:56.696Z,17.70
2018-06-28T06:00:26.995Z,17.80
2018-06-28T06:02:57.341Z,18.00
2018-06-28T06:05:28.011Z,18.00
2018-06-28T06:07:58.751Z,18.10
2018-06-28T06:10:32.311Z,18.10
2018-06-28T06:13:02.595Z,18.30
2018-06-28T06:15:32.879Z,18.40
2018-06-28T06:18:03.194Z,18.50
2018-06-28T06:23:03.532Z,18.70
2018-06-28T06:25:33.856Z,19.00
2018-06-28T06:28:04.223Z,19.30
2018-06-28T06:30:35.022Z,19.60
2018-06-28T06:33:05.580Z,19.90
2018-06-28T06:35:36.000Z,20.10
2018-06-28T06:38:06.503Z,20.40
2018-06-28T06:40:36.707Z,20.60
2018-06-28T06:43:07.050Z,20.40
2018-06-28T06:45:37.304Z,20.40
2018-06-28T06:48:07.584Z,20.50
2018-06-28T06:50:37.984Z,20.80
2018-06-28T06:53:08.118Z,21.00
2018-06-28T06:55:38.357Z,21.20
2018-06-28T06:58:08.633Z,21.30
2018-06-28T07:00:38.858Z,21.50
2018-06-28T07:03:09.099Z,21.60
2018-06-28T07:05:39.451Z,21.70
2018-06-28T07:08:09.687Z,21.40
2018-06-28T07:10:39.907Z,21.40
2018-06-28T07:13:10.204Z,21.30
2018-06-28T07:15:40.685Z,21.30
2018-06-28T07:18:10.993Z,21.30
2018-06-28T07:20:41.203Z,21.30
2018-06-28T07:23:11.491Z,21.10
2018-06-28T07:25:42.153Z,21.10
2018-06-28T07:28:12.447Z,21.10
2018-06-28T07:30:42.756Z,21.10
2018-06-28T07:33:13.155Z,21.00
2018-06-28T07:35:43.390Z,20.90
2018-06-28T07:38:13.726Z,21.00
2018-06-28T07:40:43.998Z,21.10
2018-06-28T07:43:14.334Z,21.20
2018-06-28T07:45:44.580Z,21.10
2018-06-28T07:48:14.855Z,20.90
2018-06-28T07:50:45.146Z,21.00
2018-06-28T07:53:15.450Z,21.00
2018-06-28T07:55:45.766Z,21.00
2018-06-28T07:58:16.032Z,21.00
2018-06-28T08:00:46.255Z,21.10
2018-06-28T08:03:16.593Z,21.10
2018-06-28T08:05:47.148Z,21.30
2018-06-28T08:08:18.547Z,21.40
2018-06-28T08:10:48.811Z,21.50
2018-06-28T08:13:19.175Z,21.60
2018-06-28T08:15:49.394Z,21.80
2018-06-28T08:18:25.414Z,21.90
2018-06-28T08:20:55.953Z,22.00
2018-06-28T08:23:30.870Z,22.30
2018-06-28T08:26:01.355Z,22.70
2018-06-28T08:28:32.061Z,22.90
2018-06-28T08:31:02.570Z,23.10
2018-06-28T08:33:33.088Z,23.20
2018-06-28T08:36:03.403Z,23.40
2018-06-28T08:38:33.679Z,23.50
2018-06-28T08:41:03.950Z,23.40
2018-06-28T08:43:34.362Z,23.50
2018-06-28T08:46:04.741Z,23.20
2018-06-28T08:48:35.000Z,23.20
2018-06-28T08:51:05.239Z,23.20
2018-06-28T08:53:35.504Z,23.20
2018-06-28T08:56:06.280Z,22.90
2018-06-28T08:58:36.592Z,22.70
2018-06-28T09:03:36.871Z,22.50
2018-06-28T09:06:07.119Z,22.20
2018-06-28T09:08:37.548Z,22.10
2018-06-28T09:11:08.023Z,22.00
2018-06-28T09:13:38.362Z,21.80
2018-06-28T09:16:08.619Z,21.50
2018-06-28T09:18:38.883Z,21.20
2018-06-28T09:21:09.094Z,21.20
2018-06-28T09:23:39.340Z,21.10
2018-06-28T09:26:11.125Z,21.00
2018-06-28T09:28:41.431Z,20.90
2018-06-28T09:31:11.682Z,21.10
2018-06-28T09:33:42.204Z,21.30
2018-06-28T09:36:12.634Z,21.30
2018-06-28T09:38:43.005Z,21.50
2018-06-28T09:41:13.226Z,21.50
2018-06-28T09:43:43.758Z,21.60
2018-06-28T09:46:14.386Z,21.70
2018-06-28T09:48:44.673Z,21.70
2018-06-28T09:51:14.872Z,21.70
2018-06-28T09:53:45.107Z,21.80
2018-06-28T09:56:15.358Z,21.90
2018-06-28T09:58:45.589Z,22.10
2018-06-28T10:01:15.790Z,22.20
2018-06-28T10:03:46.067Z,22.40
2018-06-28T10:06:16.464Z,22.60
2018-06-28T10:08:46.722Z,22.90
2018-06-28T10:11:17.641Z,23.20
2018-06-28T10:13:47.923Z,23.40
2018-06-28T10:16:18.227Z,23.60
2018-06-28T10:18:50.968Z,23.40
2018-06-28T10:21:21.816Z,23.40
2018-06-28T10:23:55.244Z,23.60
2018-06-28T10:26:25.697Z,23.90
2018-06-28T10:28:56.026Z,24.20
2018-06-28T10:31:26.427Z,24.50
2018-06-28T10:33:56.948Z,24.70
2018-06-28T10:36:27.182Z,24.80
2018-06-28T10:38:57.730Z,24.40
2018-06-28T10:41:28.277Z,24.30
2018-06-28T10:43:58.590Z,24.30
2018-06-28T10:46:28.887Z,24.20
2018-06-28T10:48:59.478Z,23.90
2018-06-28T10:51:29.827Z,23.20
2018-06-28T10:54:00.812Z,22.30
2018-06-28T10:56:32.663Z,22.00
2018-06-28T10:59:06.614Z,22.30
2018-06-28T11:01:38.552Z,22.30
2018-06-28T11:04:10.947Z,22.40
2018-06-28T11:06:41.879Z,22.40
2018-06-28T11:09:12.753Z,22.20
2018-06-28T11:11:43.114Z,22.00
2018-06-28T11:14:13.482Z,21.90
2018-06-28T11:16:50.200Z,21.80
2018-06-28T11:19:21.211Z,21.70
2018-06-28T11:21:51.701Z,21.70
2018-06-28T11:24:23.864Z,21.90
2018-06-28T11:26:55.226Z,22.10
2018-06-28T11:29:25.865Z,22.20
2018-06-28T11:31:56.371Z,22.40
2018-06-28T11:34:27.838Z,22.60
2018-06-28T11:36:58.425Z,22.70
2018-06-28T11:39:28.972Z,22.50
2018-06-28T11:41:59.259Z,22.60
2018-06-28T11:44:29.759Z,22.60
2018-06-28T11:46:59.975Z,22.70
2018-06-28T11:49:30.439Z,22.70
2018-06-28T11:52:01.514Z,22.70
2018-06-28T11:54:31.986Z,22.80
2018-06-28T11:57:02.268Z,22.90
2018-06-28T11:59:33.065Z,22.90
2018-06-28T12:02:04.076Z,23.00
2018-06-28T12:04:59.314Z,23.10
2018-06-28T12:07:30.707Z,23.10
2018-06-28T12:10:01.747Z,23.20
2018-06-28T12:12:31.986Z,23.50
2018-06-28T12:15:02.282Z,23.50
2018-06-28T12:17:32.850Z,23.70
2018-06-28T12:20:03.639Z,23.70
2018-06-28T12:22:34.339Z,23.60
2018-06-28T12:25:05.680Z,23.40
2018-06-28T12:27:36.008Z,23.30
2018-06-28T12:30:06.853Z,23.40
2018-06-28T12:32:37.431Z,23.40
2018-06-28T12:35:07.774Z,23.50
2018-06-28T12:37:38.031Z,23.50
2018-06-28T12:40:08.459Z,23.60
2018-06-28T12:42:39.419Z,23.60
2018-06-28T12:45:09.962Z,23.50
2018-06-28T12:48:04.726Z,23.50
2018-06-28T12:50:35.138Z,23.60
2018-06-28T12:53:06.588Z,23.40
2018-06-28T12:56:45.467Z,23.20
2018-06-28T12:59:22.754Z,23.00
2018-06-28T13:01:53.450Z,22.90
2018-06-28T13:04:23.728Z,22.80
2018-06-28T13:06:54.019Z,22.70
2018-06-28T13:09:24.267Z,22.70
2018-06-28T13:11:54.557Z,22.70
2018-06-28T13:14:24.831Z,22.70
2018-06-28T13:16:55.110Z,22.60
2018-06-28T13:19:25.369Z,22.40
2018-06-28T13:21:55.852Z,22.20
2018-06-28T13:24:26.190Z,22.00
2018-06-28T13:26:57.602Z,21.90
2018-06-28T13:29:29.230Z,21.70
2018-06-28T13:31:59.688Z,21.60
2018-06-28T13:34:30.293Z,21.50
2018-06-28T13:37:00.515Z,21.40
2018-06-28T13:39:30.850Z,21.30
2018-06-28T13:42:01.144Z,21.20
2018-06-28T13:44:31.857Z,21.10
2018-06-28T13:47:02.077Z,21.00
2018-06-28T13:49:32.462Z,20.90
2018-06-28T13:52:02.678Z,20.90
2018-06-28T13:54:32.938Z,20.90
2018-06-28T13:57:03.287Z,21.00
2018-06-28T13:59:33.883Z,21.10
2018-06-28T14:02:04.790Z,21.20
2018-06-28T14:04:35.354Z,21.40
2018-06-28T14:07:06.161Z,21.40
2018-06-28T14:09:36.445Z,21.40
2018-06-28T14:12:07.164Z,21.40
2018-06-28T14:14:37.656Z,21.30
2018-06-28T14:17:07.894Z,21.20
2018-06-28T14:19:38.211Z,21.10
2018-06-28T14:22:08.485Z,21.10
2018-06-28T14:24:38.716Z,21.10
2018-06-28T14:27:09.018Z,21.10
2018-06-28T14:29:39.293Z,21.00
2018-06-28T14:32:09.606Z,20.80
2018-06-28T14:34:39.883Z,20.90
2018-06-28T14:37:10.276Z,21.00
2018-06-28T14:39:41.026Z,21.10
2018-06-28T14:42:11.286Z,21.10
2018-06-28T14:44:42.504Z,21.10
2018-06-28T14:47:12.901Z,21.10
2018-06-28T14:49:43.183Z,20.90
2018-06-28T14:52:13.914Z,20.90
2018-06-28T14:54:44.671Z,20.80
2018-06-28T14:57:15.083Z,20.80
2018-06-28T14:59:45.351Z,20.90
2018-06-28T15:02:15.699Z,20.90
2018-06-28T15:04:58.539Z,20.90
2018-06-28T15:07:30.012Z,20.90
2018-06-28T15:10:08.017Z,20.90
2018-06-28T15:12:39.253Z,20.90
2018-06-28T15:15:10.870Z,21.00
2018-06-28T15:17:47.468Z,21.00
2018-06-28T15:20:17.671Z,20.80
2018-06-28T15:22:48.083Z,20.60
2018-06-28T15:25:18.426Z,20.60
2018-06-28T15:27:49.492Z,20.40
2018-06-28T15:30:19.762Z,20.40
2018-06-28T15:32:50.271Z,20.30
2018-06-28T15:35:20.530Z,20.20
2018-06-28T15:37:54.943Z,20.10
2018-06-28T15:40:26.306Z,20.20
2018-06-28T15:42:56.895Z,20.20
2018-06-28T15:45:27.395Z,20.20
2018-06-28T15:47:58.680Z,20.30
2018-06-28T15:50:28.950Z,20.40
2018-06-28T15:53:00.540Z,20.40
2018-06-28T15:55:31.394Z,20.50
2018-06-28T15:58:01.649Z,20.50
2018-06-28T16:00:35.848Z,20.60
2018-06-28T16:03:08.307Z,20.60
2018-06-28T16:05:38.999Z,20.60
2018-06-28T16:08:10.179Z,20.40
2018-06-28T16:10:41.141Z,20.40
2018-06-28T16:13:11.399Z,20.40
2018-06-28T16:15:45.408Z,20.40
2018-06-28T16:18:16.392Z,20.20
2018-06-28T16:20:46.816Z,20.00
2018-06-28T16:23:24.108Z,19.90
2018-06-28T16:25:54.551Z,19.80
2018-06-28T16:28:25.908Z,19.50
2018-06-28T16:30:57.429Z,19.30
2018-06-28T16:33:27.947Z,19.20
2018-06-28T16:35:58.170Z,19.20
2018-06-28T16:38:29.004Z,19.00
2018-06-28T16:41:00.533Z,19.00
2018-06-28T16:43:31.312Z,19.10
2018-06-28T16:46:01.877Z,19.00
2018-06-28T16:48:32.424Z,18.90
2018-06-28T16:51:03.649Z,18.90
2018-06-28T16:53:33.999Z,19.00
2018-06-28T16:56:06.933Z,19.00
2018-06-28T16:58:37.357Z,18.90
2018-06-28T17:01:09.078Z,19.00
2018-06-28T17:03:39.774Z,19.00
2018-06-28T17:06:10.532Z,18.90
2018-06-28T17:08:41.832Z,18.80
2018-06-28T17:11:12.921Z,18.80
2018-06-28T17:13:43.466Z,18.70
2018-06-28T17:16:15.375Z,18.70
2018-06-28T17:18:45.879Z,18.80
2018-06-28T17:21:16.972Z,18.80
2018-06-28T17:23:48.056Z,18.80
2018-06-28T17:26:19.353Z,18.80
2018-06-28T17:28:51.779Z,18.80
2018-06-28T17:31:26.055Z,18.70
2018-06-28T17:33:57.503Z,18.70
2018-06-28T17:36:28.415Z,18.60
2018-06-28T17:39:00.253Z,18.60
2018-06-28T17:41:32.848Z,18.70
2018-06-28T17:44:12.171Z,18.60
2018-06-28T17:46:43.046Z,18.70
2018-06-28T17:49:13.366Z,18.60
2018-06-28T17:51:43.996Z,18.50
2018-06-28T17:54:14.488Z,18.50
2018-06-28T17:56:45.231Z,18.30
2018-06-28T17:59:15.608Z,18.30
2018-06-28T18:01:46.088Z,18.30
2018-06-28T18:04:16.429Z,18.30
2018-06-28T18:06:46.966Z,18.20
2018-06-28T18:09:17.340Z,18.20
2018-06-28T18:11:47.801Z,18.20
2018-06-28T18:14:18.252Z,18.20
2018-06-28T18:16:48.594Z,18.10
2018-06-28T18:19:18.826Z,18.10
2018-06-28T18:21:49.155Z,18.10
2018-06-28T18:24:19.481Z,18.10
2018-06-28T18:26:49.849Z,18.00
2018-06-28T18:29:20.146Z,18.00
2018-06-28T18:31:50.640Z,18.00
2018-06-28T18:34:20.993Z,17.90
2018-06-28T18:36:51.220Z,17.90
2018-06-28T18:39:21.431Z,17.90
2018-06-28T18:41:51.683Z,17.90
2018-06-28T18:44:21.876Z,18.00
2018-06-28T18:46:52.517Z,18.00
2018-06-28T18:49:22.734Z,18.00
2018-06-28T18:51:52.969Z,17.90
2018-06-28T18:54:23.228Z,17.90
2018-06-28T18:56:53.551Z,18.00
2018-06-28T18:59:23.835Z,18.00
2018-06-28T19:01:54.464Z,18.00
2018-06-28T19:04:25.020Z,17.90
2018-06-28T19:06:56.125Z,17.90
2018-06-28T19:09:32.078Z,17.90
2018-06-28T19:12:02.546Z,17.90
2018-06-28T19:14:38.315Z,17.90
2018-06-28T19:17:08.626Z,17.80
2018-06-28T19:19:39.029Z,17.80
2018-06-28T19:22:16.006Z,17.80
2018-06-28T19:24:47.009Z,17.80
2018-06-28T19:27:17.306Z,17.80
2018-06-28T19:29:54.026Z,17.80
2018-06-28T19:32:30.452Z,17.90
2018-06-28T19:35:02.281Z,17.80
2018-06-28T19:37:37.828Z,17.70
2018-06-28T19:40:14.311Z,17.60
2018-06-28T19:42:54.263Z,17.60
2018-06-28T19:45:26.995Z,17.60
2018-06-28T19:48:00.427Z,17.60
2018-06-28T19:50:35.951Z,17.60
2018-06-28T19:53:08.327Z,17.60
2018-06-28T19:55:39.510Z,17.50
2018-06-28T19:58:09.882Z,17.50
2018-06-28T20:00:45.307Z,17.40
2018-06-28T20:03:20.648Z,17.40
2018-06-28T20:05:52.066Z,17.40
2018-06-28T20:08:23.899Z,17.40
2018-06-28T20:10:56.164Z,17.30
2018-06-28T20:13:31.983Z,17.30
2018-06-28T20:16:07.612Z,17.20
2018-06-28T20:18:43.222Z,17.30
2018-06-28T20:21:13.558Z,17.20
2018-06-28T20:23:44.157Z,17.20
2018-06-28T20:26:20.265Z,17.20
2018-06-28T20:28:55.978Z,17.30
2018-06-28T20:31:32.173Z,17.30
2018-06-28T20:34:09.849Z,17.30
2018-06-28T20:36:41.596Z,17.30
2018-06-28T20:39:12.681Z,17.30
2018-06-28T20:41:43.874Z,17.40
2018-06-28T20:44:14.728Z,17.30
2018-06-28T20:46:45.360Z,17.40
2018-06-28T20:49:16.548Z,17.40
2018-06-28T20:51:47.660Z,17.40
2018-06-28T20:54:18.133Z,17.40
2018-06-28T20:56:48.415Z,17.40
2018-06-28T20:59:19.418Z,17.50
2018-06-28T21:01:50.580Z,17.50
2018-06-28T21:04:21.017Z,17.50
2018-06-28T21:06:51.949Z,17.50
2018-06-28T21:09:23.064Z,17.50
2018-06-28T21:11:54.654Z,17.60
2018-06-28T21:14:25.620Z,17.60
2018-06-28T21:16:57.085Z,17.60
2018-06-28T21:19:27.890Z,17.60
2018-06-28T21:21:59.787Z,17.60
2018-06-28T21:24:32.592Z,17.60
2018-06-28T21:27:05.107Z,17.60
2018-06-28T21:29:37.631Z,17.60
2018-06-28T21:32:11.458Z,17.60
2018-06-28T21:34:50.190Z,17.70
2018-06-28T21:37:22.013Z,17.70
2018-06-28T21:39:53.454Z,17.70
2018-06-28T21:42:24.866Z,17.70
2018-06-28T21:44:56.029Z,17.70
2018-06-28T21:47:28.049Z,17.60
2018-06-28T21:50:00.434Z,17.60
2018-06-28T21:52:31.784Z,17.60
2018-06-28T21:55:02.916Z,17.70
2018-06-28T21:57:36.679Z,17.60
2018-06-28T22:00:10.147Z,17.70
2018-06-28T22:02:41.063Z,17.60
2018-06-28T22:05:11.957Z,17.60
2018-06-28T22:07:43.891Z,17.60
2018-06-28T22:10:15.379Z,17.60
2018-06-28T22:12:46.456Z,17.70
2018-06-28T22:15:25.876Z,17.70
2018-06-28T22:17:58.884Z,17.60
2018-06-28T22:20:31.395Z,17.50
2018-06-28T22:23:03.077Z,17.50
2018-06-28T22:25:34.099Z,17.50
2018-06-28T22:28:05.038Z,17.60
2018-06-28T22:30:36.472Z,17.50
2018-06-28T22:33:07.438Z,17.40
2018-06-28T22:35:38.831Z,17.30
2018-06-28T22:38:10.332Z,17.20
2018-06-28T22:40:41.823Z,17.20
2018-06-28T22:43:12.121Z,17.20
2018-06-28T22:45:42.535Z,17.30
2018-06-28T22:48:12.766Z,17.30
2018-06-28T22:50:43.037Z,17.40
2018-06-28T22:53:13.267Z,17.30
2018-06-28T22:55:43.687Z,17.30
2018-06-28T22:58:13.919Z,17.30
2018-06-28T23:00:44.270Z,17.30
2018-06-28T23:03:14.520Z,17.20
2018-06-28T23:05:44.759Z,17.30
2018-06-28T23:08:15.034Z,17.20
2018-06-28T23:10:45.236Z,17.30
2018-06-28T23:13:15.470Z,17.30
2018-06-28T23:15:46.070Z,17.40
2018-06-28T23:18:16.555Z,17.40
2018-06-28T23:20:46.795Z,17.40
2018-06-28T23:23:17.021Z,17.50
2018-06-28T23:25:47.229Z,17.40
2018-06-28T23:28:17.458Z,17.40
2018-06-28T23:30:47.667Z,17.30
2018-06-28T23:33:17.928Z,17.20
2018-06-28T23:35:48.115Z,17.20
2018-06-28T23:38:18.350Z,17.20
2018-06-28T23:40:48.539Z,17.20
2018-06-28T23:43:18.957Z,17.20
2018-06-28T23:45:49.057Z,17.20
2018-06-28T23:48:19.306Z,17.30
2018-06-28T23:50:49.627Z,17.30
2018-06-28T23:53:19.854Z,17.40
2018-06-28T23:55:50.232Z,17.40
2018-06-28T23:58:20.590Z,17.50
